NDF4MA LGLM-LGIR
Flight info
| Callsign | NDF4MA |
|---|---|
| Flight time | N/A |
| Altitude | 31000 |
| Route | KOROS2B KOROS UG33 NEVRA UT514 XAVIS XAVIS1A |
| Aircraft | A321/M-SDE3FGHIRWY/LB1 |
Departure
| Time | 2026-05-06 11:18 |
|---|---|
| Airport | Limnos Airport (LGLM) |
Arrival
| Time | N/A |
|---|---|
| Airport | Heraklion International Nikos Kazantzakis Airport (LGIR) |
| Time | Latitude | Longitude | Altitude | Speed | Heading |
|---|---|---|---|---|---|
| 2026-05-06 11:02 | 39.92237 | 25.23517 | 17 ft | 0 kts | 224° |
| 2026-05-06 11:14 | 39.92234 | 25.23513 | 17 ft | 4 kts | 224° |
| 2026-05-06 11:14 | 39.92195 | 25.23493 | 18 ft | 9 kts | 170° |
| 2026-05-06 11:14 | 39.92132 | 25.23508 | 17 ft | 9 kts | 174° |
| 2026-05-06 11:15 | 39.92085 | 25.23550 | 17 ft | 8 kts | 132° |
| 2026-05-06 11:15 | 39.92039 | 25.23618 | 18 ft | 12 kts | 127° |
| 2026-05-06 11:15 | 39.92044 | 25.23711 | 18 ft | 10 kts | 52° |
| 2026-05-06 11:15 | 39.92102 | 25.23785 | 17 ft | 16 kts | 43° |
| 2026-05-06 11:16 | 39.92198 | 25.23901 | 17 ft | 19 kts | 43° |
| 2026-05-06 11:16 | 39.92292 | 25.24017 | 16 ft | 18 kts | 43° |
| 2026-05-06 11:16 | 39.92385 | 25.24130 | 17 ft | 18 kts | 43° |
| 2026-05-06 11:16 | 39.92434 | 25.24239 | 18 ft | 13 kts | 106° |
| 2026-05-06 11:17 | 39.92408 | 25.24270 | 19 ft | 0 kts | 151° |
| 2026-05-06 11:17 | 39.92401 | 25.24275 | 17 ft | 6 kts | 154° |
| 2026-05-06 11:17 | 39.92324 | 25.24323 | 16 ft | 14 kts | 155° |
| 2026-05-06 11:17 | 39.92241 | 25.24280 | 16 ft | 16 kts | 223° |
| 2026-05-06 11:18 | 39.92048 | 25.24047 | 16 ft | 72 kts | 222° |
| 2026-05-06 11:18 | 39.91523 | 25.23409 | 16 ft | 131 kts | 223° |
| 2026-05-06 11:18 | 39.90740 | 25.22467 | 85 ft | 169 kts | 224° |
| 2026-05-06 11:18 | 39.89936 | 25.21419 | 741 ft | 161 kts | 223° |